createdAt,value
2018-05-17T00:01:15.989Z,11.80
2018-05-17T00:03:43.608Z,11.70
2018-05-17T00:06:11.955Z,11.60
2018-05-17T00:08:39.579Z,11.60
2018-05-17T00:11:07.168Z,11.70
2018-05-17T00:13:34.745Z,11.80
2018-05-17T00:16:02.366Z,11.80
2018-05-17T00:18:29.991Z,11.80
2018-05-17T00:20:57.608Z,11.70
2018-05-17T00:23:25.192Z,11.70
2018-05-17T00:25:53.572Z,11.60
2018-05-17T00:28:21.960Z,11.60
2018-05-17T00:30:49.576Z,11.60
2018-05-17T00:33:17.200Z,11.50
2018-05-17T00:35:44.868Z,11.50
2018-05-17T00:38:12.430Z,11.60
2018-05-17T00:40:40.043Z,11.60
2018-05-17T00:43:08.440Z,11.60
2018-05-17T00:45:36.024Z,11.60
2018-05-17T00:48:03.604Z,11.60
2018-05-17T00:50:31.224Z,11.60
2018-05-17T00:53:10.699Z,11.60
2018-05-17T00:55:38.324Z,11.60
2018-05-17T00:58:06.718Z,11.50
2018-05-17T01:00:34.332Z,11.50
2018-05-17T01:03:02.676Z,11.50
2018-05-17T01:05:30.300Z,11.50
2018-05-17T01:07:57.924Z,11.50
2018-05-17T01:10:26.268Z,11.50
2018-05-17T01:12:53.889Z,11.50
2018-05-17T01:15:21.497Z,11.60
2018-05-17T01:17:49.124Z,11.60
2018-05-17T01:20:16.716Z,11.50
2018-05-17T01:22:44.343Z,11.40
2018-05-17T01:25:11.923Z,11.50
2018-05-17T01:27:39.544Z,11.40
2018-05-17T01:30:07.124Z,11.50
2018-05-17T01:32:34.752Z,11.50
2018-05-17T01:35:02.427Z,11.50
2018-05-17T01:37:41.704Z,11.50
2018-05-17T01:40:09.296Z,11.50
2018-05-17T01:42:36.915Z,11.50
2018-05-17T01:45:04.547Z,11.50
2018-05-17T01:47:32.124Z,11.50
2018-05-17T01:49:59.750Z,11.50
2018-05-17T01:52:27.343Z,11.50
2018-05-17T01:54:54.967Z,11.50
2018-05-17T01:57:22.548Z,11.40
2018-05-17T01:59:50.171Z,11.40
2018-05-17T02:02:17.755Z,11.40
2018-05-17T02:04:45.380Z,11.20
2018-05-17T02:07:12.963Z,11.30
2018-05-17T02:09:40.584Z,11.30
2018-05-17T02:12:08.972Z,11.40
2018-05-17T02:14:37.327Z,11.40
2018-05-17T02:17:04.949Z,11.40
2018-05-17T02:19:32.531Z,11.30
2018-05-17T02:22:00.156Z,11.40
2018-05-17T02:24:27.771Z,11.30
2018-05-17T02:26:56.121Z,11.20
2018-05-17T02:29:23.744Z,11.20
2018-05-17T02:31:51.334Z,11.20
2018-05-17T02:34:18.963Z,11.20
2018-05-17T02:36:46.542Z,11.20
2018-05-17T02:39:14.165Z,11.10
2018-05-17T02:41:41.744Z,11.10
2018-05-17T02:44:09.369Z,11.10
2018-05-17T02:46:36.996Z,11.10
2018-05-17T02:49:04.691Z,11.10
2018-05-17T02:51:32.268Z,11.00
2018-05-17T02:53:59.848Z,10.90
2018-05-17T02:56:27.481Z,10.80
2018-05-17T02:58:55.060Z,10.80
2018-05-17T03:01:22.695Z,10.90
2018-05-17T03:03:50.288Z,10.80
2018-05-17T03:06:17.864Z,10.80
2018-05-17T03:08:45.488Z,10.80
2018-05-17T03:11:13.110Z,10.70
2018-05-17T03:13:41.455Z,10.60
2018-05-17T03:16:09.080Z,10.50
2018-05-17T03:18:36.663Z,10.50
2018-05-17T03:21:04.259Z,10.50
2018-05-17T03:23:32.656Z,10.40
2018-05-17T03:26:00.248Z,10.40
2018-05-17T03:28:27.867Z,10.40
2018-05-17T03:30:56.259Z,10.40
2018-05-17T03:33:23.840Z,10.40
2018-05-17T03:35:51.423Z,10.40
2018-05-17T03:38:19.044Z,10.40
2018-05-17T03:40:46.628Z,10.30
2018-05-17T03:43:14.256Z,10.20
2018-05-17T03:45:41.879Z,10.20
2018-05-17T03:48:09.456Z,10.20
2018-05-17T03:50:37.087Z,10.30
2018-05-17T03:53:04.684Z,10.30
2018-05-17T03:55:33.072Z,10.30
2018-05-17T03:58:00.693Z,10.30
2018-05-17T04:00:34.219Z,10.30
2018-05-17T04:03:13.716Z,10.30
2018-05-17T04:05:53.145Z,10.30
2018-05-17T04:08:20.759Z,10.30
2018-05-17T04:10:48.342Z,10.20
2018-05-17T04:13:15.968Z,10.20
2018-05-17T04:15:43.557Z,10.30
2018-05-17T04:18:11.228Z,10.40
2018-05-17T04:20:38.800Z,10.40
2018-05-17T04:23:06.434Z,10.50
2018-05-17T04:25:34.016Z,10.50
2018-05-17T04:28:01.648Z,10.50
2018-05-17T04:30:29.251Z,10.50
2018-05-17T04:32:57.680Z,10.70
2018-05-17T04:35:25.263Z,10.70
2018-05-17T04:37:52.847Z,10.80
2018-05-17T04:40:20.482Z,10.80
2018-05-17T04:42:48.071Z,10.80
2018-05-17T04:45:15.709Z,10.80
2018-05-17T04:47:43.291Z,10.90
2018-05-17T04:50:10.879Z,11.00
2018-05-17T04:52:39.279Z,11.20
2018-05-17T04:55:06.919Z,11.20
2018-05-17T04:57:35.264Z,11.20
2018-05-17T05:00:02.906Z,11.20
2018-05-17T05:02:30.487Z,11.30
2018-05-17T05:04:58.076Z,11.40
2018-05-17T05:07:26.459Z,11.60
2018-05-17T05:09:54.048Z,11.60
2018-05-17T05:12:21.717Z,11.70
2018-05-17T05:14:49.349Z,11.70
2018-05-17T05:17:16.968Z,11.80
2018-05-17T05:19:44.552Z,11.90
2018-05-17T05:22:12.184Z,12.00
2018-05-17T05:24:39.765Z,12.00
2018-05-17T05:27:08.156Z,12.20
2018-05-17T05:29:35.784Z,12.20
2018-05-17T05:32:03.428Z,12.30
2018-05-17T05:34:31.057Z,12.40
2018-05-17T05:36:58.644Z,12.50
2018-05-17T05:39:26.379Z,12.60
2018-05-17T05:41:53.960Z,12.60
2018-05-17T05:44:21.596Z,12.70
2018-05-17T05:46:49.188Z,12.80
2018-05-17T05:49:16.901Z,12.90
2018-05-17T05:51:44.420Z,12.90
2018-05-17T05:54:12.816Z,13.10
2018-05-17T05:56:40.405Z,13.10
2018-05-17T05:59:08.032Z,13.20
2018-05-17T06:01:36.432Z,13.30
2018-05-17T06:04:04.023Z,13.30
2018-05-17T06:06:31.648Z,13.40
2018-05-17T06:08:59.228Z,13.50
2018-05-17T06:11:26.839Z,13.60
2018-05-17T06:13:55.188Z,13.80
2018-05-17T06:16:22.818Z,13.80
2018-05-17T06:18:50.400Z,14.00
2018-05-17T06:21:18.020Z,14.10
2018-05-17T06:23:46.424Z,14.30
2018-05-17T06:26:14.026Z,14.30
2018-05-17T06:28:42.425Z,14.50
2018-05-17T06:31:10.043Z,14.50
2018-05-17T06:33:37.669Z,14.50
2018-05-17T06:36:05.253Z,14.60
2018-05-17T06:38:32.879Z,14.60
2018-05-17T06:41:00.465Z,14.60
2018-05-17T06:43:28.092Z,14.70
2018-05-17T06:45:55.680Z,14.80
2018-05-17T06:48:23.268Z,15.00
2018-05-17T06:50:51.669Z,15.10
2018-05-17T06:53:19.304Z,15.10
2018-05-17T06:55:47.652Z,15.20
2018-05-17T06:58:15.271Z,15.20
2018-05-17T07:00:42.910Z,15.30
2018-05-17T07:03:10.507Z,15.30
2018-05-17T07:05:38.150Z,15.40
2018-05-17T07:08:05.772Z,15.40
2018-05-17T07:10:34.249Z,15.60
2018-05-17T07:13:01.821Z,15.50
2018-05-17T07:15:30.212Z,15.60
2018-05-17T07:17:57.864Z,15.60
2018-05-17T07:20:25.412Z,15.70
2018-05-17T07:22:53.803Z,15.80
2018-05-17T07:25:21.420Z,15.80
2018-05-17T07:27:49.035Z,15.80
2018-05-17T07:30:16.668Z,15.90
2018-05-17T07:32:45.016Z,16.00
2018-05-17T07:35:12.650Z,15.90
2018-05-17T07:37:40.241Z,16.00
2018-05-17T07:40:07.868Z,16.00
2018-05-17T07:42:35.499Z,16.00
2018-05-17T07:45:03.137Z,16.20
2018-05-17T07:47:31.529Z,16.30
2018-05-17T07:49:59.951Z,16.40
2018-05-17T07:52:27.536Z,16.30
2018-05-17T07:54:55.128Z,16.40
2018-05-17T07:57:22.796Z,16.50
2018-05-17T07:59:50.486Z,16.50
2018-05-17T08:02:18.079Z,16.60
2018-05-17T08:04:45.834Z,16.70
2018-05-17T08:07:13.481Z,16.80
2018-05-17T08:09:41.128Z,16.90
2018-05-17T08:12:08.723Z,17.00
2018-05-17T08:14:36.348Z,17.10
2018-05-17T08:17:03.936Z,17.30
2018-05-17T08:19:32.324Z,17.50
2018-05-17T08:22:00.687Z,17.70
2018-05-17T08:24:28.303Z,17.60
2018-05-17T08:26:56.665Z,18.00
2018-05-17T08:29:24.291Z,18.00
2018-05-17T08:31:51.916Z,18.10
2018-05-17T08:34:19.504Z,18.10
2018-05-17T08:36:47.912Z,18.10
2018-05-17T08:39:15.588Z,18.10
2018-05-17T08:41:43.220Z,18.20
2018-05-17T08:44:10.867Z,18.30
2018-05-17T08:46:38.536Z,18.30
2018-05-17T08:49:06.193Z,18.40
2018-05-17T08:51:33.856Z,18.40
2018-05-17T08:54:02.204Z,18.40
2018-05-17T08:56:29.852Z,18.40
2018-05-17T08:58:57.436Z,18.40
2018-05-17T09:01:25.063Z,18.40
2018-05-17T09:03:52.708Z,18.50
2018-05-17T09:06:21.104Z,18.70
2018-05-17T09:08:49.508Z,18.70
2018-05-17T09:11:17.128Z,18.70
2018-05-17T09:13:44.788Z,18.70
2018-05-17T09:16:12.441Z,18.80
2018-05-17T09:18:40.028Z,18.80
2018-05-17T09:21:07.656Z,18.90
2018-05-17T09:23:35.285Z,19.00
2018-05-17T09:26:02.908Z,19.20
2018-05-17T09:28:30.533Z,19.40
2018-05-17T09:30:58.164Z,19.50
2018-05-17T09:33:25.743Z,19.50
2018-05-17T09:35:53.374Z,19.60
2018-05-17T09:38:20.996Z,19.60
2018-05-17T09:40:48.628Z,19.60
2018-05-17T09:43:16.210Z,19.60
2018-05-17T09:45:43.836Z,19.60
2018-05-17T09:48:11.464Z,19.50
2018-05-17T09:50:39.052Z,19.50
2018-05-17T09:53:06.676Z,19.40
2018-05-17T09:55:34.303Z,19.50
2018-05-17T09:58:01.906Z,19.50
2018-05-17T10:00:31.357Z,19.60
2018-05-17T10:02:58.974Z,19.60
2018-05-17T10:05:27.519Z,19.50
2018-05-17T10:07:55.096Z,19.50
2018-05-17T10:10:22.688Z,19.50
2018-05-17T10:12:51.076Z,19.30
2018-05-17T10:15:18.672Z,19.30
2018-05-17T10:17:46.306Z,19.40
2018-05-17T10:20:13.890Z,19.40
2018-05-17T10:22:41.567Z,19.50
2018-05-17T10:25:09.168Z,19.50
2018-05-17T10:27:36.756Z,19.50
2018-05-17T10:30:04.370Z,19.60
2018-05-17T10:32:32.000Z,19.60
2018-05-17T10:34:59.618Z,19.70
2018-05-17T10:37:27.281Z,19.60
2018-05-17T10:39:54.939Z,19.70
2018-05-17T10:42:23.352Z,19.80
2018-05-17T10:44:50.970Z,19.80
2018-05-17T10:47:18.584Z,19.90
2018-05-17T10:49:47.004Z,19.90
2018-05-17T10:52:14.584Z,19.90
2018-05-17T10:54:42.221Z,19.90
2018-05-17T10:57:09.803Z,20.00
2018-05-17T10:59:37.489Z,20.00
2018-05-17T11:02:05.067Z,20.10
2018-05-17T11:04:32.703Z,20.20
2018-05-17T11:07:01.056Z,20.50
2018-05-17T11:09:28.640Z,20.50
2018-05-17T11:11:56.269Z,20.50
2018-05-17T11:14:23.862Z,20.50
2018-05-17T11:16:52.344Z,20.60
2018-05-17T11:19:20.764Z,21.00
2018-05-17T11:21:48.393Z,20.90
2018-05-17T11:24:16.001Z,21.30
2018-05-17T11:26:43.628Z,21.50
2018-05-17T11:29:11.287Z,21.80
2018-05-17T11:31:39.675Z,21.90
2018-05-17T11:34:08.071Z,22.00
2018-05-17T11:36:35.670Z,21.90
2018-05-17T11:39:03.380Z,22.20
2018-05-17T11:41:31.001Z,22.50
2018-05-17T11:43:58.648Z,22.90
2018-05-17T11:46:26.235Z,23.10
2018-05-17T11:48:53.891Z,23.20
2018-05-17T11:51:21.480Z,23.10
2018-05-17T11:53:49.880Z,23.00
2018-05-17T11:56:17.504Z,22.90
2018-05-17T11:58:45.928Z,22.70
2018-05-17T12:01:13.520Z,22.60
2018-05-17T12:03:41.155Z,22.60
2018-05-17T12:06:08.764Z,22.60
2018-05-17T12:08:36.360Z,22.70
2018-05-17T12:11:04.768Z,22.60
2018-05-17T12:13:33.992Z,22.60
2018-05-17T12:16:01.668Z,22.40
2018-05-17T12:18:29.258Z,22.20
2018-05-17T12:20:58.087Z,22.10
2018-05-17T12:23:26.443Z,22.00
2018-05-17T12:25:54.063Z,22.00
2018-05-17T12:28:23.928Z,22.00
2018-05-17T12:30:51.602Z,21.90
2018-05-17T12:33:19.255Z,22.10
2018-05-17T12:35:46.883Z,22.30
2018-05-17T12:38:15.296Z,22.50
2018-05-17T12:40:42.883Z,22.50
2018-05-17T12:43:10.588Z,22.50
2018-05-17T12:45:38.187Z,22.70
2018-05-17T12:48:06.628Z,23.20
2018-05-17T12:50:34.227Z,23.10
2018-05-17T12:53:01.876Z,23.40
2018-05-17T12:55:30.282Z,23.60
2018-05-17T12:57:57.908Z,23.60
2018-05-17T13:00:26.322Z,23.60
2018-05-17T13:02:53.929Z,23.50
2018-05-17T13:05:24.083Z,23.40
2018-05-17T13:07:51.684Z,23.40
2018-05-17T13:10:19.333Z,23.30
2018-05-17T13:12:46.973Z,23.50
2018-05-17T13:15:15.320Z,23.90
2018-05-17T13:17:42.956Z,23.90
2018-05-17T13:20:10.592Z,24.10
2018-05-17T13:22:38.976Z,24.20
2018-05-17T13:25:08.146Z,24.30
2018-05-17T13:27:35.775Z,24.40
2018-05-17T13:30:03.420Z,24.40
2018-05-17T13:32:31.035Z,24.50
2018-05-17T13:34:59.487Z,24.80
2018-05-17T13:37:27.740Z,24.70
2018-05-17T13:39:56.884Z,25.00
2018-05-17T13:44:59.748Z,24.80
2018-05-17T13:47:32.203Z,24.70
2018-05-17T13:49:59.782Z,24.60
2018-05-17T13:52:28.288Z,24.40
2018-05-17T13:54:57.683Z,24.40
2018-05-17T13:57:26.345Z,24.50
2018-05-17T13:59:54.231Z,24.50
2018-05-17T14:02:22.016Z,24.40
2018-05-17T14:04:49.634Z,24.30
2018-05-17T14:07:17.509Z,23.80
2018-05-17T14:09:45.393Z,23.40
2018-05-17T14:12:14.365Z,22.70
2018-05-17T14:14:42.148Z,22.70
2018-05-17T14:17:09.913Z,22.50
2018-05-17T14:19:37.575Z,22.30
2018-05-17T14:22:05.254Z,22.20
2018-05-17T14:24:34.064Z,22.00
2018-05-17T14:27:01.857Z,21.90
2018-05-17T14:29:30.550Z,21.70
2018-05-17T14:31:59.221Z,21.60
2018-05-17T14:34:26.980Z,21.60
2018-05-17T14:36:54.585Z,21.50
2018-05-17T14:39:22.984Z,21.30
2018-05-17T14:41:50.606Z,21.30
2018-05-17T14:44:18.200Z,21.30
2018-05-17T14:46:45.908Z,22.00
2018-05-17T14:49:13.505Z,22.70
2018-05-17T14:51:41.257Z,23.20
2018-05-17T14:54:08.869Z,23.30
2018-05-17T14:56:36.564Z,23.40
2018-05-17T14:59:04.149Z,23.60
2018-05-17T15:01:31.790Z,23.70
2018-05-17T15:03:59.430Z,23.80
2018-05-17T15:06:27.055Z,23.40
2018-05-17T15:08:58.359Z,23.00
2018-05-17T15:11:27.783Z,22.80
2018-05-17T15:13:59.439Z,22.70
2018-05-17T15:16:27.044Z,22.60
2018-05-17T15:18:54.934Z,22.50
2018-05-17T15:21:23.496Z,22.50
2018-05-17T15:23:51.092Z,22.50
2018-05-17T15:26:18.759Z,22.40
2018-05-17T15:28:46.341Z,22.40
2018-05-17T15:31:13.933Z,22.30
2018-05-17T15:33:44.508Z,22.20
2018-05-17T15:36:12.988Z,22.00
2018-05-17T15:38:40.536Z,22.00
2018-05-17T15:41:08.184Z,21.90
2018-05-17T15:43:35.856Z,21.90
2018-05-17T15:46:03.480Z,21.90
2018-05-17T15:48:31.108Z,21.90
2018-05-17T15:50:58.714Z,21.90
2018-05-17T15:53:27.107Z,21.90
2018-05-17T15:55:54.646Z,21.90
2018-05-17T15:58:23.300Z,21.80
2018-05-17T16:00:53.516Z,21.80
2018-05-17T16:03:21.200Z,21.90
2018-05-17T16:05:48.858Z,22.00
2018-05-17T16:08:16.527Z,22.00
2018-05-17T16:10:44.165Z,22.00
2018-05-17T16:13:11.833Z,22.00
2018-05-17T16:15:39.934Z,21.90
2018-05-17T16:18:08.233Z,21.80
2018-05-17T16:20:35.891Z,21.80
2018-05-17T16:23:04.260Z,21.90
2018-05-17T16:25:31.903Z,21.80
2018-05-17T16:27:59.551Z,22.00
2018-05-17T16:30:27.228Z,21.90
2018-05-17T16:32:54.869Z,21.80
2018-05-17T16:35:22.532Z,21.80
2018-05-17T16:37:50.171Z,21.70
2018-05-17T16:40:17.841Z,21.80
2018-05-17T16:42:45.507Z,21.80
2018-05-17T16:45:13.137Z,21.80
2018-05-17T16:47:41.510Z,22.10
2018-05-17T16:50:09.127Z,22.10
2018-05-17T16:52:37.737Z,22.30
2018-05-17T16:55:07.240Z,22.70
2018-05-17T16:57:34.882Z,22.70
2018-05-17T17:00:02.536Z,22.70
2018-05-17T17:02:30.184Z,22.80
2018-05-17T17:04:57.824Z,22.90
2018-05-17T17:07:25.468Z,23.00
2018-05-17T17:09:53.838Z,22.80
2018-05-17T17:12:22.240Z,22.70
2018-05-17T17:14:51.231Z,22.60
2018-05-17T17:17:20.360Z,22.60
2018-05-17T17:19:48.227Z,22.50
2018-05-17T17:22:16.861Z,22.40
2018-05-17T17:24:44.497Z,22.30
2018-05-17T17:27:12.188Z,22.10
2018-05-17T17:29:40.427Z,22.00
2018-05-17T17:32:08.997Z,21.90
2018-05-17T17:34:38.031Z,21.60
2018-05-17T17:37:06.109Z,21.60
2018-05-17T17:39:34.464Z,21.50
2018-05-17T17:42:02.516Z,21.40
2018-05-17T17:44:30.161Z,21.40
2018-05-17T17:46:57.764Z,21.20
2018-05-17T17:49:26.374Z,21.10
2018-05-17T17:51:58.244Z,21.00
2018-05-17T17:57:00.125Z,20.90
2018-05-17T17:59:34.442Z,20.90
2018-05-17T18:02:18.248Z,20.80
2018-05-17T18:09:02.043Z,20.60
2018-05-17T18:11:29.690Z,20.40
2018-05-17T18:13:58.052Z,20.40
2018-05-17T18:16:26.431Z,20.40
2018-05-17T18:18:55.612Z,20.40
2018-05-17T18:21:24.120Z,20.40
2018-05-17T18:23:52.471Z,20.30
2018-05-17T18:26:21.195Z,20.10
2018-05-17T18:28:49.772Z,20.00
2018-05-17T18:33:52.280Z,19.80
2018-05-17T18:36:20.107Z,19.70
2018-05-17T18:38:49.337Z,19.70
2018-05-17T18:43:56.405Z,19.70
2018-05-17T18:46:26.743Z,19.70
2018-05-17T18:48:54.383Z,19.70
2018-05-17T18:53:57.289Z,19.40
2018-05-17T18:56:25.171Z,19.40
2018-05-17T18:58:58.940Z,19.30
2018-05-17T19:04:10.270Z,19.50
2018-05-17T19:06:45.260Z,19.50
2018-05-17T19:09:17.136Z,19.50
2018-05-17T19:11:48.702Z,19.50
2018-05-17T19:14:20.659Z,19.50
2018-05-17T19:16:48.301Z,19.40
2018-05-17T19:19:16.961Z,19.30
2018-05-17T19:21:46.111Z,19.30
2018-05-17T19:24:13.915Z,19.30
2018-05-17T19:26:41.510Z,19.30
2018-05-17T19:29:09.163Z,19.30
2018-05-17T19:31:36.873Z,19.20
2018-05-17T19:34:04.463Z,19.20
2018-05-17T19:36:32.138Z,19.20
2018-05-17T19:38:59.744Z,19.10
2018-05-17T19:43:47.489Z,18.90
2018-05-17T19:46:16.080Z,18.70
2018-05-17T19:48:43.792Z,18.70
2018-05-17T19:51:11.425Z,18.70
2018-05-17T19:53:39.165Z,18.70
2018-05-17T19:56:07.888Z,18.30
2018-05-17T19:58:35.989Z,18.20
2018-05-17T20:01:04.124Z,18.20
2018-05-17T20:03:31.776Z,18.20
2018-05-17T20:05:59.744Z,18.20
2018-05-17T20:08:27.429Z,18.20
2018-05-17T20:10:55.121Z,18.20
2018-05-17T20:13:22.770Z,18.10
2018-05-17T20:15:50.850Z,18.10
2018-05-17T20:18:18.549Z,18.10
2018-05-17T20:20:46.256Z,18.10
2018-05-17T20:23:13.909Z,18.00
2018-05-17T20:25:41.913Z,18.00
2018-05-17T20:28:09.500Z,17.90
2018-05-17T20:30:37.145Z,17.90
2018-05-17T20:33:05.901Z,17.80
2018-05-17T20:35:33.581Z,17.80
2018-05-17T20:38:01.841Z,17.70
2018-05-17T20:40:29.546Z,17.70
2018-05-17T20:42:57.953Z,17.60
2018-05-17T20:45:25.832Z,17.60
2018-05-17T20:47:53.485Z,17.60
2018-05-17T20:50:21.080Z,17.50
2018-05-17T20:52:48.744Z,17.40
2018-05-17T20:55:16.424Z,17.30
2018-05-17T20:57:44.835Z,17.10
2018-05-17T21:00:12.428Z,17.10
2018-05-17T21:02:40.058Z,17.10
2018-05-17T21:05:07.934Z,17.10
2018-05-17T21:07:35.576Z,17.10
2018-05-17T21:10:03.209Z,17.10
2018-05-17T21:12:30.841Z,17.10
2018-05-17T21:14:58.450Z,17.10
2018-05-17T21:17:26.114Z,17.00
2018-05-17T21:19:54.468Z,16.80
2018-05-17T21:22:22.173Z,16.80
2018-05-17T21:24:49.999Z,16.80
2018-05-17T21:27:17.681Z,16.80
2018-05-17T21:29:45.389Z,16.60
2018-05-17T21:32:13.492Z,16.70
2018-05-17T21:34:42.513Z,16.70
2018-05-17T21:37:10.366Z,16.70
2018-05-17T21:39:38.884Z,16.80
2018-05-17T21:42:07.103Z,16.80
2018-05-17T21:44:34.741Z,16.80
2018-05-17T21:47:02.405Z,16.80
2018-05-17T21:49:30.044Z,16.80
2018-05-17T21:51:57.646Z,16.80
2018-05-17T21:54:25.272Z,16.60
2018-05-17T21:56:52.915Z,16.40
2018-05-17T21:59:20.532Z,16.30
2018-05-17T22:01:48.177Z,16.30
2018-05-17T22:04:15.813Z,16.30
2018-05-17T22:06:43.408Z,16.30
2018-05-17T22:09:11.039Z,16.30
2018-05-17T22:11:38.685Z,16.40
2018-05-17T22:14:06.342Z,16.30
2018-05-17T22:16:33.933Z,16.30
2018-05-17T22:19:01.566Z,16.20
2018-05-17T22:21:29.157Z,16.20
2018-05-17T22:23:56.744Z,16.10
2018-05-17T22:26:24.382Z,16.00
2018-05-17T22:28:52.000Z,15.90
2018-05-17T22:31:19.714Z,15.90
2018-05-17T22:33:47.335Z,15.90
2018-05-17T22:36:14.961Z,15.80
2018-05-17T22:38:42.581Z,15.80
2018-05-17T22:41:10.212Z,15.80
2018-05-17T22:43:37.828Z,15.80
2018-05-17T22:46:05.436Z,15.80
2018-05-17T22:48:33.065Z,15.70
2018-05-17T22:51:00.711Z,15.60
2018-05-17T22:53:28.304Z,15.60
2018-05-17T22:55:56.770Z,15.50
2018-05-17T22:58:33.386Z,15.50
2018-05-17T23:01:01.016Z,15.50
2018-05-17T23:03:29.425Z,15.30
2018-05-17T23:05:57.020Z,15.40
2018-05-17T23:08:24.649Z,15.20
2018-05-17T23:10:52.240Z,15.30
2018-05-17T23:13:20.660Z,15.30
2018-05-17T23:15:49.060Z,15.30
2018-05-17T23:18:16.688Z,15.30
2018-05-17T23:20:45.045Z,15.10
2018-05-17T23:23:12.686Z,15.10
2018-05-17T23:25:41.057Z,15.10
2018-05-17T23:28:08.644Z,15.10
2018-05-17T23:30:36.273Z,15.10
2018-05-17T23:33:03.889Z,15.10
2018-05-17T23:35:32.289Z,14.80
2018-05-17T23:37:59.880Z,14.80
2018-05-17T23:40:39.220Z,14.50
2018-05-17T23:43:06.808Z,14.40
2018-05-17T23:45:34.434Z,14.40
2018-05-17T23:48:02.077Z,14.40
2018-05-17T23:50:29.665Z,14.40
2018-05-17T23:52:57.333Z,14.50
2018-05-17T23:55:24.921Z,14.50
2018-05-17T23:57:52.552Z,14.30
